AirNav   Pilot Hours Calculator
 
 1501 users online  

3VA8 Garner Airport
Windsor, Virginia, USA

GOING TO WINDSOR?


FAA INFORMATION EFFECTIVE 20 MAY 2021

Location

FAA Identifier: 3VA8
Lat/Long: 36-51-22.5370N 076-40-55.8410W
36-51.375617N 076-40.930683W
36.8562603,-76.6821781
(estimated)
Elevation: 80 ft. / 24.4 m (surveyed)
Variation: 09W (1985)
From city: 5 miles NE of WINDSOR, VA
Time zone: UTC -4 (UTC -5 during Standard Time)
Zip code: 23487

Airport Operations

Airport use: Private use. Permission required prior to landing
Activation date: 06/1970
Control tower: no
ARTCC: WASHINGTON CENTER
FSS: LEESBURG FLIGHT SERVICE STATION
Attendance: UNATNDD
Wind indicator: yes
Segmented circle: no

Airport Communications

WX AWOS-3 at SFQ (11 nm S): 119.375 (757-934-3942)
WX AWOS-3PT at PVG (12 nm E): 118.375 (757-465-2175)
WX AWOS-3PT at FKN (14 nm SW): 124.675 (757-562-8765)
WX ASOS at AKQ (17 nm NW): 128.325 (757-899-2300)
WX ASOS at PHF (19 nm NE): PHONE 757-874-3682

Nearby radio navigation aids

VOR radial/distance  VOR name  Freq  Var
FKNr071/18.0FRANKLIN VORTAC110.6009W
ORFr272/23.2NORFOLK VORTAC116.9007W
CVIr026/30.4COFIELD VORTAC114.6009W
HPWr150/35.1HOPEWELL VORTAC112.0006W
HCMr185/35.6HARCUM VORTAC108.8007W

 
NDB name  Hdg/Dist  Freq  Var  ID
WAKEFIELD127/17.127411WAKQ .- -.- --.-

Airport Services

Airframe service: NONE
Powerplant service: NONE

Runway Information

Runway N/S

Dimensions: 2600 x 75 ft. / 792 x 23 m
Surface: turf
RUNWAY N  RUNWAY S
Traffic pattern: leftleft

Airport Ownership and Management from official FAA records

Ownership: Privately-owned
Owner: TIDEWATER SOARING FOUNDATION
1400 MAQRUDER RD
SMITHFIELD, VA 23430
Phone 757-357-2360
Manager: WILLIAM E. LAINE, JR
1400 MAQRUDER RD
SMITHFIELD, VA 23430
Phone 757-357-2360
WEEKENDS ONLY.

Airport Operational Statistics

Aircraft based on the field: 27
Single engine airplanes: 2
Gliders airplanes: 25
    

Additional Remarks

GLDR OPS ON WKENDS. 123.3
TO OBTAIN LNDG PMSN CALL W.E. LAINE, JR., 757-377-6174 (NIGHTS & WKENDS & DAYS).
FOR CD CTC NORFOLK APCH AT 757-464-0757.

Instrument Procedures

There are no published instrument procedures at 3VA8.

Some nearby airports with instrument procedures:

KSFQ - Suffolk Executive Airport (11 nm S)
KPVG - Hampton Roads Executive Airport (12 nm E)
KFKN - Franklin Regional Airport (14 nm SW)
KFAF - Felker Army Airfield (17 nm N)
KAKQ - Wakefield Municipal Airport (17 nm NW)
KPHF - Newport News/Williamsburg International Airport (19 nm NE)
KNGU - Norfolk Naval Station (Chambers Field) (19 nm E)
 
Loc | Ops | Rwys | IFR | FBO | Links
Com | Nav | Svcs | Stats | Notes
Area around 3VA8 (Garner Airport)
 
Road maps at: MapQuest Bing Google
 
Aerial photo
WARNING: Photo may not be current or correct
Aerial photo of 3VA8 (Garner Airport)
Photo taken 01-May-2018
looking west.

Do you have a better or more recent aerial photo of Garner Airport that you would like to share? If so, please send us your photo.

 
Sectional chart

 
Airport distance calculator
Flying to Garner Airport? Find the distance to fly.

From to 3VA8

Sunrise and sunset
Times for 16-Jun-2021
 Local
(UTC-4)
 Zulu
(UTC)
Morning civil twilight05:1709:17
Sunrise05:4809:48
Sunset20:2700:27
Evening civil twilight20:5700:57

Current date and time
Zulu (UTC)  16-Jun-2021 15:34:36
Local (UTC-4)  16-Jun-2021 11:34:36
 
METAR
KSFQ 
11nm S 
161515Z AUTO 01003KT 10SM CLR 26/13 A2995 RMK AO2 T02550133
KPVG 
12nm E 
161456Z AUTO 30006KT 10SM CLR 25/15 A2994 RMK AO2 SLP139 T02500150 53008
KFKN 
14nm SW 
161515Z AUTO 32003KT 10SM CLR 25/14 A2994 RMK AO2 T02500142
KFAF 
16nm N 
161456Z AUTO 32006KT 10SM CLR 24/16 A2991 RMK AO2 SLP132 T02410158 52008 $
KAKQ 
17nm NW 
161454Z AUTO VRB03KT 10SM CLR 26/14 A2993 RMK AO2 SLP136 T02560139 52006
KPHF 
19nm NE 
161454Z 34006KT 10SM CLR 24/15 A2993 RMK AO2 SLP133 T02440150 53008
KLFI 
20nm NE 
161456Z AUTO 36006KT 10SM CLR 25/15 A2992 RMK AO2 SLP138 T02450151 52008
KNGU 
20nm E 
161459Z 35007KT 10SM FEW070 26/14 A2994 RMK AO2 SLP137 T02560139 51008 $
KCPK 
21nm SE 
161515Z AUTO 34006KT 10SM CLR 25/12 A2993 RMK AO2 T02520124
TAF
KFAF 
16nm N 
161000Z 1610/1716 30006KT 9999 FEW050 SCT100 QNH2986INS TX25/1620Z TN21/1710Z
KPHF 
19nm NE 
161120Z 1612/1712 31007KT P6SM SCT100 FM161500 34008KT P6SM SCT060 FM162300 04006KT P6SM SCT100 FM170400 VRB03KT P6SM SKC
KLFI 
20nm NE 
160900Z 1609/1715 31009KT 9999 FEW050 QNH2985INS BECMG 1611/1612 32012KT 9999 FEW050 SCT080 QNH2990INS TX27/1620Z TN18/1610Z
NOTAMs
Click for the latest NOTAMs
NOTAMs are issued by the DoD/FAA and will open in a separate window not controlled by AirNav.

 

 
 

Would you like to see your business listed on this page?

 If your business provides an interesting product or service to pilots, flight crews, aircraft, or users of the Garner Airport, you should consider listing it here.  To start the listing process, click on the button below
 
Add a business
 

Other Pages about Garner Airport

Update a link
 
Copyright © AirNav, LLC. All rights reserved. Privacy Policy  Contact